Terminal Aerodrome Forecast
Issued by NWS

Home | Current Version | Previous Version | Text Only | Print | Product List | Glossary On
Versions: 1 2 3 4 5 6 7 8 9 10 11 12 13 14 15 16
617
FTUS46 KHNX 241730
TAFMER
TAF
KMER 241730Z 2418/2518 15015KT P6SM OVC070
     FM242000 14011G22KT 5SM -RA OVC050
     FM250600 15005KT P6SM -SHRA SCT025 OVC050
     FM251200 15003KT P6SM OVC025=

USA.gov is the U.S. government's official web portal to all federal, state and local government web resources and services.